createdAt,value
2022-08-14T00:01:13.339Z,58.85
2022-08-14T00:03:43.610Z,59.41
2022-08-14T00:06:28.682Z,59.34
2022-08-14T00:09:00.721Z,59.81
2022-08-14T00:11:32.369Z,60.51
2022-08-14T00:14:03.490Z,60.81
2022-08-14T00:16:41.041Z,60.68
2022-08-14T00:19:19.535Z,61.13
2022-08-14T00:21:54.848Z,61.05
2022-08-14T00:24:29.052Z,61.04
2022-08-14T00:27:02.853Z,61.27
2022-08-14T00:29:40.674Z,61.15
2022-08-14T00:32:50.262Z,61.52
2022-08-14T00:35:04.122Z,61.29
2022-08-14T00:37:42.013Z,61.31
2022-08-14T00:40:27.403Z,61.99
2022-08-14T00:43:04.613Z,61.84
2022-08-14T00:45:35.488Z,61.59
2022-08-14T00:48:07.096Z,61.60
2022-08-14T00:50:37.732Z,61.72
2022-08-14T00:53:10.808Z,62.20
2022-08-14T00:55:43.111Z,62.25
2022-08-14T00:58:27.884Z,62.07
2022-08-14T01:01:04.415Z,61.87
2022-08-14T01:03:42.429Z,61.86
2022-08-14T01:06:15.283Z,62.28
2022-08-14T01:08:57.674Z,62.50
2022-08-14T01:11:35.446Z,62.66
2022-08-14T01:14:25.266Z,62.47
2022-08-14T01:16:57.591Z,62.91
2022-08-14T01:19:41.463Z,62.88
2022-08-14T01:22:18.916Z,63.42
2022-08-14T01:24:50.979Z,63.25
2022-08-14T01:27:24.202Z,63.49
2022-08-14T01:30:03.742Z,63.93
2022-08-14T01:32:42.472Z,63.95
2022-08-14T01:35:19.270Z,64.09
2022-08-14T01:38:06.394Z,63.90
2022-08-14T01:40:41.924Z,63.86
2022-08-14T01:43:15.937Z,64.01
2022-08-14T01:45:57.963Z,63.75
2022-08-14T01:48:38.029Z,64.02
2022-08-14T01:51:18.802Z,64.24
2022-08-14T01:53:55.886Z,63.77
2022-08-14T01:56:37.199Z,63.97
2022-08-14T01:59:18.132Z,64.08
2022-08-14T02:01:58.088Z,63.95
2022-08-14T02:04:55.147Z,63.93
2022-08-14T02:07:34.514Z,63.49
2022-08-14T02:10:18.089Z,63.80
2022-08-14T02:12:57.617Z,63.87
2022-08-14T02:15:29.690Z,63.89
2022-08-14T02:18:01.697Z,63.80
2022-08-14T02:20:35.900Z,63.46
2022-08-14T02:23:08.274Z,63.85
2022-08-14T02:25:41.294Z,63.89
2022-08-14T02:28:24.384Z,63.22
2022-08-14T02:31:02.725Z,63.65
2022-08-14T02:33:33.832Z,63.42
2022-08-14T02:37:02.933Z,63.05
2022-08-14T02:39:00.233Z,63.53
2022-08-14T02:41:38.997Z,63.29
2022-08-14T02:44:12.131Z,63.65
2022-08-14T02:46:44.981Z,64.07
2022-08-14T02:49:21.806Z,64.04
2022-08-14T02:51:56.257Z,64.05
2022-08-14T02:54:27.996Z,64.03
2022-08-14T02:57:15.313Z,63.86
2022-08-14T02:59:47.706Z,64.55
2022-08-14T03:02:48.750Z,64.30
2022-08-14T03:05:09.000Z,64.66
2022-08-14T03:07:40.220Z,64.80
2022-08-14T03:10:27.680Z,64.92
2022-08-14T03:13:06.377Z,64.82
2022-08-14T03:15:44.981Z,65.12
2022-08-14T03:18:19.346Z,65.10
2022-08-14T03:21:03.816Z,64.85
2022-08-14T03:23:38.407Z,64.81
2022-08-14T03:26:13.217Z,65.13
2022-08-14T03:28:53.266Z,64.96
2022-08-14T03:31:25.976Z,64.72
2022-08-14T03:33:59.804Z,64.81
2022-08-14T03:37:39.445Z,64.60
2022-08-14T03:39:24.167Z,64.65
2022-08-14T03:41:59.941Z,64.85
2022-08-14T03:45:26.762Z,64.72
2022-08-14T03:47:46.680Z,64.38
2022-08-14T03:50:24.269Z,64.30
2022-08-14T03:53:00.622Z,64.33
2022-08-14T03:55:31.408Z,64.03
2022-08-14T03:58:02.208Z,63.84
2022-08-14T04:00:43.996Z,63.80
2022-08-14T04:03:23.629Z,63.79
2022-08-14T04:05:55.294Z,63.56
2022-08-14T04:08:31.018Z,62.95
2022-08-14T04:11:10.228Z,63.24
2022-08-14T04:13:42.622Z,62.85
2022-08-14T04:16:20.454Z,62.97
2022-08-14T04:18:54.981Z,62.43
2022-08-14T04:21:28.411Z,62.37
2022-08-14T04:23:59.778Z,62.21
2022-08-14T04:26:42.556Z,62.36
2022-08-14T04:29:15.405Z,61.73
2022-08-14T04:33:02.736Z,61.60
2022-08-14T04:34:42.523Z,62.53
2022-08-14T04:37:36.850Z,62.92
2022-08-14T04:40:22.380Z,62.64
2022-08-14T04:43:14.468Z,62.53
2022-08-14T04:45:51.205Z,62.25
2022-08-14T04:48:39.975Z,61.87
2022-08-14T04:51:15.558Z,61.37
2022-08-14T04:53:48.547Z,61.09
2022-08-14T04:56:31.286Z,60.26
2022-08-14T04:59:10.499Z,59.25
2022-08-14T05:01:49.753Z,56.17
2022-08-14T05:04:25.116Z,53.05
2022-08-14T05:06:57.329Z,50.05
2022-08-14T05:09:29.078Z,47.36
2022-08-14T05:13:11.031Z,45.15
2022-08-14T05:14:54.589Z,43.52
2022-08-14T05:17:28.753Z,42.64
2022-08-14T05:21:04.911Z,43.37
2022-08-14T05:22:56.309Z,42.23
2022-08-14T05:25:30.625Z,41.52
2022-08-14T05:28:16.425Z,41.17
2022-08-14T05:30:46.946Z,43.93
2022-08-14T05:33:19.953Z,42.22
2022-08-14T05:35:53.608Z,41.94
2022-08-14T05:38:31.209Z,40.73
2022-08-14T05:41:02.688Z,40.88
2022-08-14T05:43:41.254Z,40.98
2022-08-14T05:46:15.687Z,42.01
2022-08-14T05:48:46.183Z,42.37
2022-08-14T05:51:19.515Z,42.70
2022-08-14T05:54:01.872Z,44.31
2022-08-14T05:56:40.277Z,45.39
2022-08-14T05:59:11.196Z,45.30
2022-08-14T06:01:41.625Z,46.25
2022-08-14T06:04:12.571Z,47.48
2022-08-14T06:06:46.414Z,49.10
2022-08-14T06:09:17.483Z,48.91
2022-08-14T06:11:49.902Z,48.67
2022-08-14T06:14:23.808Z,47.63
2022-08-14T06:16:54.532Z,47.08
2022-08-14T06:19:24.789Z,45.89
2022-08-14T06:21:59.186Z,43.52
2022-08-14T06:24:34.867Z,42.41
2022-08-14T06:27:10.031Z,41.05
2022-08-14T06:29:42.504Z,39.56
2022-08-14T06:32:38.452Z,38.49
2022-08-14T06:35:13.463Z,37.66
2022-08-14T06:37:51.698Z,37.24
2022-08-14T06:40:28.014Z,37.07
2022-08-14T06:43:00.198Z,36.12
2022-08-14T06:45:34.315Z,36.23
2022-08-14T06:48:06.381Z,36.14
2022-08-14T06:50:43.748Z,36.20
2022-08-14T06:53:19.991Z,35.06
2022-08-14T06:55:58.478Z,35.04
2022-08-14T06:58:32.896Z,35.41
2022-08-14T07:01:19.296Z,34.74
2022-08-14T07:04:05.906Z,33.44
2022-08-14T07:06:49.788Z,33.58
2022-08-14T07:09:23.555Z,33.25
2022-08-14T07:11:54.177Z,33.17
2022-08-14T07:14:24.308Z,33.34
2022-08-14T07:16:54.544Z,32.86
2022-08-14T07:19:24.792Z,32.53
2022-08-14T07:21:55.167Z,31.19
2022-08-14T07:24:31.754Z,31.75
2022-08-14T07:27:02.130Z,32.18
2022-08-14T07:29:32.591Z,32.22
2022-08-14T07:32:03.579Z,31.73
2022-08-14T07:34:40.865Z,32.09
2022-08-14T07:37:11.687Z,32.43
2022-08-14T07:39:44.867Z,31.09
2022-08-14T07:42:15.935Z,32.05
2022-08-14T07:44:50.660Z,31.06
2022-08-14T07:47:21.303Z,30.44
2022-08-14T07:50:02.126Z,30.22
2022-08-14T07:52:33.623Z,30.12
2022-08-14T07:55:07.020Z,30.08
2022-08-14T07:57:39.579Z,30.06
2022-08-14T08:00:31.007Z,29.75
2022-08-14T08:03:04.189Z,28.95
2022-08-14T08:05:35.349Z,28.35
2022-08-14T08:08:08.264Z,28.89
2022-08-14T08:11:03.034Z,29.33
2022-08-14T08:13:38.766Z,29.33
2022-08-14T08:16:10.626Z,29.27
2022-08-14T08:18:42.218Z,28.54
2022-08-14T08:21:13.505Z,28.68
2022-08-14T08:23:51.531Z,28.77
2022-08-14T08:26:31.525Z,28.08
2022-08-14T08:29:02.375Z,27.55
2022-08-14T08:31:35.414Z,27.42
2022-08-14T08:34:14.241Z,27.45
2022-08-14T08:36:48.657Z,27.24
2022-08-14T08:39:23.075Z,26.78
2022-08-14T08:41:56.036Z,27.20
2022-08-14T08:44:34.347Z,28.45
2022-08-14T08:47:06.877Z,27.82
2022-08-14T08:49:48.518Z,27.94
2022-08-14T08:52:31.243Z,26.65
2022-08-14T08:55:04.636Z,26.55
2022-08-14T08:57:39.745Z,26.77
2022-08-14T09:00:24.245Z,26.88
2022-08-14T09:03:03.330Z,26.80
2022-08-14T09:05:35.968Z,26.80
2022-08-14T09:08:30.192Z,26.89
2022-08-14T09:11:19.059Z,27.75
2022-08-14T09:13:55.197Z,29.15
2022-08-14T09:16:26.725Z,27.99
2022-08-14T09:18:57.890Z,27.75
2022-08-14T09:21:31.122Z,29.00
2022-08-14T09:24:28.867Z,28.05
2022-08-14T09:26:53.102Z,28.01
2022-08-14T09:29:28.990Z,27.91
2022-08-14T09:32:57.713Z,28.11
2022-08-14T09:35:08.529Z,28.09
2022-08-14T09:37:47.484Z,27.19
2022-08-14T09:40:33.652Z,27.33
2022-08-14T09:43:22.465Z,26.81
2022-08-14T09:46:01.796Z,26.34
2022-08-14T09:48:32.954Z,27.47
2022-08-14T09:54:18.037Z,25.92
2022-08-14T09:56:32.977Z,25.06
2022-08-14T09:59:16.696Z,24.86
2022-08-14T10:01:52.586Z,24.21
2022-08-14T10:04:36.484Z,23.60
2022-08-14T10:07:10.320Z,23.56
2022-08-14T10:09:59.466Z,24.16
2022-08-14T10:12:52.973Z,23.65
2022-08-14T10:15:30.060Z,24.11
2022-08-14T10:18:17.274Z,24.39
2022-08-14T10:20:57.729Z,24.59
2022-08-14T10:23:33.709Z,25.00
2022-08-14T10:26:08.434Z,24.83
2022-08-14T10:29:03.857Z,24.20
2022-08-14T10:31:44.570Z,23.98
2022-08-14T10:34:35.497Z,23.85
2022-08-14T10:37:14.791Z,23.83
2022-08-14T10:40:01.207Z,23.83
2022-08-14T10:42:40.817Z,23.89
2022-08-14T10:45:22.424Z,22.83
2022-08-14T10:48:09.104Z,23.04
2022-08-14T10:50:50.497Z,22.61
2022-08-14T10:53:32.807Z,23.36
2022-08-14T10:56:08.137Z,23.86
2022-08-14T10:58:53.860Z,24.38
2022-08-14T11:01:38.650Z,24.29
2022-08-14T11:04:30.783Z,25.29
2022-08-14T11:07:05.844Z,24.41
2022-08-14T11:09:36.992Z,24.64
2022-08-14T11:12:34.865Z,25.28
2022-08-14T11:15:03.901Z,25.63
2022-08-14T11:17:36.313Z,25.85
2022-08-14T11:20:14.207Z,26.16
2022-08-14T11:22:55.656Z,25.76
2022-08-14T11:25:43.350Z,26.09
2022-08-14T11:28:19.398Z,25.97
2022-08-14T11:30:54.018Z,25.58
2022-08-14T11:33:29.562Z,25.69
2022-08-14T11:36:01.956Z,26.15
2022-08-14T11:38:40.794Z,26.69
2022-08-14T11:41:18.064Z,26.62
2022-08-14T11:43:58.473Z,25.65
2022-08-14T11:46:37.577Z,25.49
2022-08-14T11:49:09.524Z,25.42
2022-08-14T11:51:53.438Z,25.39
2022-08-14T11:54:34.687Z,25.85
2022-08-14T11:57:05.963Z,24.95
2022-08-14T11:59:43.925Z,24.01
2022-08-14T12:03:00.689Z,24.39
2022-08-14T12:05:09.372Z,24.57
2022-08-14T12:07:53.393Z,24.34
2022-08-14T12:10:42.567Z,23.97
2022-08-14T12:13:17.393Z,24.52
2022-08-14T12:15:51.383Z,24.00
2022-08-14T12:18:35.329Z,23.99
2022-08-14T12:21:19.300Z,23.98
2022-08-14T12:23:51.542Z,24.19
2022-08-14T12:26:39.510Z,23.73
2022-08-14T12:29:14.585Z,24.78
2022-08-14T12:31:47.403Z,24.61
2022-08-14T12:34:22.859Z,24.24
2022-08-14T12:37:06.055Z,24.08
2022-08-14T12:39:40.445Z,23.92
2022-08-14T12:42:27.283Z,23.72
2022-08-14T12:45:05.339Z,24.09
2022-08-14T12:47:38.151Z,24.67
2022-08-14T12:50:13.079Z,24.36
2022-08-14T12:52:58.775Z,23.39
2022-08-14T12:56:17.495Z,24.07
2022-08-14T12:58:50.011Z,23.48
2022-08-14T13:01:24.013Z,24.53
2022-08-14T13:04:10.121Z,24.41
2022-08-14T13:06:44.241Z,24.03
2022-08-14T13:09:17.695Z,24.22
2022-08-14T13:11:58.819Z,24.25
2022-08-14T13:14:50.707Z,25.25
2022-08-14T13:17:22.745Z,25.99
2022-08-14T13:19:55.189Z,26.12
2022-08-14T13:22:32.073Z,26.59
2022-08-14T13:25:06.728Z,26.92
2022-08-14T13:27:39.385Z,26.54
2022-08-14T13:30:23.435Z,26.21
2022-08-14T13:32:58.137Z,26.20
2022-08-14T13:35:29.098Z,25.93
2022-08-14T13:38:00.318Z,25.74
2022-08-14T13:40:30.731Z,25.55
2022-08-14T13:43:02.081Z,26.16
2022-08-14T13:46:00.526Z,26.16
2022-08-14T13:48:33.090Z,26.32
2022-08-14T13:51:11.868Z,25.41
2022-08-14T13:54:07.238Z,24.90
2022-08-14T13:56:42.177Z,24.66
2022-08-14T13:59:13.194Z,24.94
2022-08-14T14:01:53.960Z,24.83
2022-08-14T14:04:30.551Z,24.52
2022-08-14T14:07:05.761Z,24.27
2022-08-14T14:09:51.084Z,24.06
2022-08-14T14:12:49.134Z,24.14
2022-08-14T14:15:22.920Z,24.23
2022-08-14T14:18:07.059Z,24.47
2022-08-14T14:20:57.653Z,23.82
2022-08-14T14:23:28.738Z,24.05
2022-08-14T14:26:00.797Z,24.74
2022-08-14T14:28:34.889Z,24.97
2022-08-14T14:31:08.301Z,25.63
2022-08-14T14:33:49.018Z,25.58
2022-08-14T14:36:23.569Z,24.86
2022-08-14T14:38:56.359Z,24.62
2022-08-14T14:41:37.619Z,25.01
2022-08-14T14:44:13.686Z,25.52
2022-08-14T14:46:53.175Z,25.73
2022-08-14T14:49:31.923Z,25.89
2022-08-14T14:52:23.386Z,25.83
2022-08-14T14:54:59.047Z,25.80
2022-08-14T14:57:35.699Z,25.66
2022-08-14T15:00:12.737Z,26.32
2022-08-14T15:02:46.245Z,26.48
2022-08-14T15:05:20.299Z,26.66
2022-08-14T15:07:54.976Z,26.81
2022-08-14T15:10:34.211Z,27.56
2022-08-14T15:13:07.222Z,27.72
2022-08-14T15:15:37.831Z,26.78
2022-08-14T15:18:36.736Z,27.48
2022-08-14T15:21:03.931Z,27.16
2022-08-14T15:23:44.673Z,27.09
2022-08-14T15:26:31.042Z,27.41
2022-08-14T15:29:05.668Z,26.96
2022-08-14T15:31:38.773Z,26.73
2022-08-14T15:34:44.794Z,26.33
2022-08-14T15:37:12.614Z,26.34
2022-08-14T15:39:44.458Z,26.86
2022-08-14T15:42:16.357Z,26.44
2022-08-14T15:44:57.923Z,26.63
2022-08-14T15:47:33.237Z,26.91
2022-08-14T15:50:09.645Z,26.81
2022-08-14T15:52:44.807Z,26.74
2022-08-14T15:55:17.881Z,26.82
2022-08-14T15:57:51.273Z,27.27
2022-08-14T16:00:49.388Z,27.21
2022-08-14T16:03:27.316Z,27.50
2022-08-14T16:06:10.874Z,27.42
2022-08-14T16:08:59.013Z,27.56
2022-08-14T16:11:33.027Z,27.21
2022-08-14T16:14:06.601Z,27.29
2022-08-14T16:16:51.734Z,28.17
2022-08-14T16:19:31.177Z,27.57
2022-08-14T16:22:57.148Z,28.47
2022-08-14T16:25:03.113Z,29.70
2022-08-14T16:27:40.743Z,29.56
2022-08-14T16:30:27.621Z,30.11
2022-08-14T16:33:01.141Z,31.45
2022-08-14T16:35:42.244Z,32.25
2022-08-14T16:38:45.985Z,33.18
2022-08-14T16:41:31.771Z,32.85
2022-08-14T16:44:04.655Z,33.12
2022-08-14T16:46:43.042Z,33.29
2022-08-14T16:49:18.064Z,32.71
2022-08-14T16:51:52.717Z,33.09
2022-08-14T16:54:35.112Z,34.52
2022-08-14T16:57:22.607Z,34.35
2022-08-14T16:59:57.809Z,34.39
2022-08-14T17:02:41.902Z,34.19
2022-08-14T17:05:20.108Z,34.46
2022-08-14T17:08:32.682Z,34.46
2022-08-14T17:11:10.948Z,34.86
2022-08-14T17:13:58.008Z,34.71
2022-08-14T17:16:35.907Z,33.85
2022-08-14T17:19:09.993Z,33.89
2022-08-14T17:21:47.546Z,33.25
2022-08-14T17:24:57.088Z,33.17
2022-08-14T17:27:18.542Z,33.24
2022-08-14T17:29:57.893Z,32.88
2022-08-14T17:32:55.778Z,32.90
2022-08-14T17:35:57.473Z,33.14
2022-08-14T17:38:39.230Z,33.60
2022-08-14T17:41:36.007Z,32.60
2022-08-14T17:44:20.097Z,32.88
2022-08-14T17:46:58.580Z,32.74
2022-08-14T17:49:33.975Z,33.23
2022-08-14T17:52:16.793Z,33.15
2022-08-14T17:54:52.842Z,33.19
2022-08-14T17:57:35.279Z,33.13
2022-08-14T18:00:14.696Z,35.30
2022-08-14T18:02:50.429Z,36.04
2022-08-14T18:06:07.391Z,37.09
2022-08-14T18:08:32.152Z,36.83
2022-08-14T18:11:04.022Z,37.22
2022-08-14T18:13:51.732Z,38.08
2022-08-14T18:16:23.476Z,38.90
2022-08-14T18:18:57.566Z,39.87
2022-08-14T18:21:42.153Z,40.30
2022-08-14T18:24:29.798Z,40.84
2022-08-14T18:27:08.647Z,41.30
2022-08-14T18:29:54.811Z,41.92
2022-08-14T18:32:47.045Z,42.30
2022-08-14T18:35:23.201Z,42.74
2022-08-14T18:38:45.640Z,43.37
2022-08-14T18:41:38.108Z,43.84
2022-08-14T18:44:10.876Z,44.25
2022-08-14T18:47:14.951Z,44.34
2022-08-14T18:50:27.346Z,44.89
2022-08-14T18:53:11.582Z,45.48
2022-08-14T18:55:54.130Z,45.42
2022-08-14T18:58:34.320Z,46.21
2022-08-14T19:01:06.593Z,45.88
2022-08-14T19:03:58.274Z,46.06
2022-08-14T19:06:55.873Z,45.72
2022-08-14T19:10:16.794Z,45.57
2022-08-14T19:13:12.185Z,45.69
2022-08-14T19:15:45.578Z,46.27
2022-08-14T19:18:29.061Z,46.43
2022-08-14T19:21:01.652Z,46.61
2022-08-14T19:23:42.239Z,46.71
2022-08-14T19:26:35.637Z,47.78
2022-08-14T19:29:37.629Z,47.70
2022-08-14T19:32:40.343Z,47.92
2022-08-14T19:35:55.054Z,48.61
2022-08-14T19:38:59.146Z,48.96
2022-08-14T19:41:34.012Z,49.04
2022-08-14T19:44:13.308Z,49.06
2022-08-14T19:47:01.657Z,49.14
2022-08-14T19:50:08.323Z,48.81
2022-08-14T19:52:30.116Z,48.53
2022-08-14T19:55:16.972Z,49.57
2022-08-14T19:57:52.205Z,50.06
2022-08-14T20:00:30.540Z,50.74
2022-08-14T20:03:09.847Z,50.41
2022-08-14T20:05:45.678Z,50.56
2022-08-14T20:10:59.135Z,50.58
2022-08-14T20:11:43.019Z,50.36
2022-08-14T20:14:10.427Z,50.22
2022-08-14T20:16:43.234Z,49.71
2022-08-14T20:19:18.715Z,49.11
2022-08-14T20:22:04.813Z,49.15
2022-08-14T20:24:45.277Z,48.97
2022-08-14T20:27:33.120Z,48.78
2022-08-14T20:30:34.162Z,48.52
2022-08-14T20:33:10.674Z,48.21
2022-08-14T20:35:52.492Z,48.17
2022-08-14T20:38:31.082Z,48.63
2022-08-14T20:41:05.614Z,48.91
2022-08-14T20:43:52.877Z,49.10
2022-08-14T20:46:29.525Z,49.17
2022-08-14T20:49:05.982Z,48.95
2022-08-14T20:51:47.689Z,49.23
2022-08-14T20:54:34.493Z,49.37
2022-08-14T20:57:12.104Z,49.63
2022-08-14T20:59:48.740Z,49.30
2022-08-14T21:02:50.389Z,49.56
2022-08-14T21:05:34.057Z,49.56
2022-08-14T21:08:09.654Z,49.68
2022-08-14T21:10:57.215Z,50.00
2022-08-14T21:14:19.823Z,49.44
2022-08-14T21:16:33.137Z,49.75
2022-08-14T21:19:08.594Z,49.28
2022-08-14T21:21:42.451Z,49.42
2022-08-14T21:24:38.614Z,50.02
2022-08-14T21:27:12.668Z,49.73
2022-08-14T21:29:53.640Z,50.16
2022-08-14T21:32:47.329Z,50.34
2022-08-14T21:35:30.532Z,50.63
2022-08-14T21:38:01.245Z,50.67
2022-08-14T21:40:41.832Z,50.48
2022-08-14T21:43:19.793Z,51.37
2022-08-14T21:45:51.619Z,50.87
2022-08-14T21:48:25.372Z,50.91
2022-08-14T21:51:54.606Z,51.28
2022-08-14T21:54:01.444Z,51.11
2022-08-14T21:56:40.688Z,50.71
2022-08-14T21:59:30.082Z,50.68
2022-08-14T22:02:03.682Z,50.79
2022-08-14T22:04:40.772Z,50.93
2022-08-14T22:07:18.080Z,51.28
2022-08-14T22:09:54.976Z,51.63
2022-08-14T22:12:57.339Z,51.51
2022-08-14T22:15:23.086Z,51.15
2022-08-14T22:17:55.090Z,51.51
2022-08-14T22:20:28.864Z,52.17
2022-08-14T22:23:06.489Z,51.99
2022-08-14T22:25:40.994Z,51.71
2022-08-14T22:28:15.746Z,51.94
2022-08-14T22:30:45.994Z,52.30
2022-08-14T22:33:17.105Z,52.53
2022-08-14T22:35:47.648Z,52.93
2022-08-14T22:38:35.741Z,52.24
2022-08-14T22:41:27.915Z,52.48
2022-08-14T22:44:04.770Z,52.13
2022-08-14T22:46:36.780Z,52.43
2022-08-14T22:49:16.428Z,52.52
2022-08-14T22:52:32.113Z,52.75
2022-08-14T22:54:59.131Z,52.73
2022-08-14T22:57:37.825Z,52.57
2022-08-14T23:00:25.008Z,52.53
2022-08-14T23:02:59.982Z,52.72
2022-08-14T23:05:40.032Z,53.03
2022-08-14T23:08:58.891Z,53.10
2022-08-14T23:11:15.566Z,53.04
2022-08-14T23:13:46.516Z,53.12
2022-08-14T23:16:19.861Z,53.13
2022-08-14T23:18:53.495Z,53.18
2022-08-14T23:21:28.933Z,53.38
2022-08-14T23:24:00.391Z,53.85
2022-08-14T23:26:47.871Z,53.67
2022-08-14T23:29:22.688Z,54.10
2022-08-14T23:31:53.855Z,53.80
2022-08-14T23:34:25.751Z,54.09
2022-08-14T23:37:03.879Z,54.30
2022-08-14T23:39:36.211Z,53.86
2022-08-14T23:42:13.482Z,53.74
2022-08-14T23:44:49.080Z,54.05
2022-08-14T23:47:26.373Z,54.30
2022-08-14T23:50:03.343Z,54.48
2022-08-14T23:53:06.123Z,54.39
2022-08-14T23:55:32.131Z,55.03
2022-08-14T23:58:05.159Z,55.47
